Time;durP1;ratioP1;P1;durP2;ratioP2;P2;SDS_P1;SDS_P2;PMS_P1;PMS_P2;Temp;Humidity;BMP_temperature;BMP_pressure;BME280_temperature;BME280_humidity;BME280_pressure;Samples;Min_cycle;Max_cycle;Signal;HPM_P1;HPM_P2
2021/03/30 00:02:01;;;;;;;4.27;3.27;;;9.60;67.70;;;;;;5024089;28;20271;-59
2021/03/30 00:04:26;;;;;;;5.27;2.53;;;9.60;67.90;;;;;;5025192;28;20215;-57
2021/03/30 00:06:52;;;;;;;2.50;2.30;;;9.60;68.20;;;;;;5017446;28;20191;-59
2021/03/30 00:09:18;;;;;;;2.37;2.23;;;9.60;68.30;;;;;;5023916;28;20238;-58
2021/03/30 00:11:43;;;;;;;2.37;2.27;;;9.60;68.40;;;;;;5020636;28;20618;-59
2021/03/30 00:14:09;;;;;;;2.10;2.00;;;9.60;68.10;;;;;;5024735;28;20260;-60
2021/03/30 00:16:35;;;;;;;2.07;1.97;;;9.50;68.40;;;;;;5023067;28;20760;-60
2021/03/30 00:19:01;;;;;;;1.77;1.67;;;9.50;68.40;;;;;;5020748;28;20188;-60
2021/03/30 00:21:27;;;;;;;3.13;2.03;;;9.50;68.30;;;;;;5023837;28;20195;-60
2021/03/30 00:23:52;;;;;;;2.10;2.00;;;9.50;68.20;;;;;;5025982;28;20597;-60
2021/03/30 00:26:18;;;;;;;2.13;1.97;;;9.50;68.20;;;;;;5024655;28;20199;-60
2021/03/30 00:28:44;;;;;;;2.40;1.90;;;9.40;68.00;;;;;;5019783;28;20662;-59
2021/03/30 00:31:10;;;;;;;3.47;2.63;;;9.40;68.00;;;;;;5023317;28;20185;-59
2021/03/30 00:33:35;;;;;;;2.40;2.30;;;9.40;68.00;;;;;;5024410;28;20176;-57
2021/03/30 00:36:01;;;;;;;6.17;2.60;;;9.40;68.10;;;;;;5022043;28;20191;-58
2021/03/30 00:38:26;;;;;;;3.27;2.40;;;9.40;68.20;;;;;;5022610;28;20185;-60
2021/03/30 00:40:52;;;;;;;4.17;1.93;;;9.30;68.10;;;;;;5022640;28;20191;-60
2021/03/30 00:43:19;;;;;;;2.00;1.90;;;9.30;68.10;;;;;;5027805;28;20188;-60
2021/03/30 00:45:45;;;;;;;3.03;2.40;;;9.30;68.00;;;;;;5027319;28;20181;-60
2021/03/30 00:48:22;;;;;;;3.13;2.77;;;9.30;68.30;;;;;;5026735;28;20183;-60
2021/03/30 00:50:48;;;;;;;3.47;2.43;;;9.20;68.30;;;;;;5023365;28;20172;-59
2021/03/30 00:53:14;;;;;;;2.50;2.30;;;9.20;68.30;;;;;;5027547;28;20215;-59
2021/03/30 00:55:40;;;;;;;7.63;2.50;;;9.20;68.60;;;;;;5027534;28;21526;-58
2021/03/30 00:58:07;;;;;;;2.43;2.20;;;9.20;68.70;;;;;;5024841;28;20189;-60
2021/03/30 01:00:33;;;;;;;2.93;2.63;;;9.10;68.50;;;;;;5025690;28;20697;-59
2021/03/30 01:02:59;;;;;;;3.07;2.77;;;9.10;68.80;;;;;;5026481;28;20189;-60
2021/03/30 01:05:25;;;;;;;6.73;3.20;;;9.10;68.80;;;;;;5026083;28;20181;-60
2021/03/30 01:07:56;;;;;;;2.50;2.40;;;9.00;69.10;;;;;;5025309;28;20195;-59
2021/03/30 01:11:05;;;;;;;5.23;2.37;;;8.90;69.70;;;;;;5026775;28;20192;-59
2021/03/30 01:13:54;;;;;;;3.73;2.13;;;8.90;69.70;;;;;;4931607;29;20631;-59
2021/03/30 01:16:54;;;;;;;2.20;2.00;;;8.80;69.70;;;;;;4928631;29;20821;-59
2021/03/30 01:19:53;;;;;;;5.73;2.07;;;8.80;69.90;;;;;;4928164;29;20309;-60
2021/03/30 01:22:46;;;;;;;3.17;1.83;;;8.70;70.10;;;;;;4929499;29;20202;-59
2021/03/30 01:25:12;;;;;;;2.30;2.20;;;8.60;69.80;;;;;;4930168;29;20203;-60
2021/03/30 01:28:16;;;;;;;1.87;1.77;;;8.60;70.00;;;;;;4929088;29;20196;-59
2021/03/30 01:30:42;;;;;;;2.30;1.80;;;8.50;70.10;;;;;;4929623;29;20287;-59
2021/03/30 01:33:12;;;;;;;2.17;2.07;;;8.50;69.80;;;;;;4928852;29;20303;-59
2021/03/30 01:35:40;;;;;;;2.10;2.00;;;8.50;70.10;;;;;;4929303;29;20640;-61
2021/03/30 01:38:08;;;;;;;1.73;1.70;;;8.40;70.40;;;;;;4930023;29;20211;-60
2021/03/30 01:40:35;;;;;;;3.23;2.13;;;8.30;70.70;;;;;;4930596;29;20187;-59
2021/03/30 01:43:02;;;;;;;2.33;2.10;;;8.30;70.60;;;;;;4929592;29;20714;-61
2021/03/30 01:45:29;;;;;;;1.70;1.70;;;8.20;70.80;;;;;;4928512;29;20203;-59
2021/03/30 01:47:56;;;;;;;5.60;1.83;;;8.20;70.70;;;;;;4930156;29;20277;-59
2021/03/30 01:50:22;;;;;;;3.47;2.00;;;8.20;71.10;;;;;;4972706;28;20194;-58
2021/03/30 01:52:51;;;;;;;2.17;2.00;;;8.10;70.80;;;;;;5028551;28;20204;-59
2021/03/30 01:55:18;;;;;;;1.17;0.90;;;8.00;71.00;;;;;;5027228;28;20177;-59
2021/03/30 01:57:51;;;;;;;4.93;1.90;;;8.00;71.10;;;;;;5027108;28;20260;-58
2021/03/30 02:00:19;;;;;;;2.03;1.93;;;8.00;71.20;;;;;;5025707;28;20181;-59
2021/03/30 02:02:46;;;;;;;4.00;1.93;;;7.90;71.40;;;;;;5028012;28;20566;-60
2021/03/30 02:05:14;;;;;;;2.00;1.90;;;7.90;71.80;;;;;;5023462;28;20267;-58
2021/03/30 02:07:41;;;;;;;1.60;1.50;;;7.80;71.80;;;;;;5026998;28;20699;-58
2021/03/30 02:10:14;;;;;;;1.60;1.50;;;7.80;71.90;;;;;;5024359;28;20932;-60
2021/03/30 02:12:44;;;;;;;1.77;1.67;;;7.80;72.00;;;;;;5026188;28;20593;-60
2021/03/30 02:15:15;;;;;;;1.80;1.57;;;7.70;72.10;;;;;;5026155;28;20180;-60
2021/03/30 02:17:46;;;;;;;3.40;1.87;;;7.70;71.60;;;;;;5023909;28;20291;-60
2021/03/30 02:20:18;;;;;;;1.80;1.70;;;7.70;71.70;;;;;;5027472;28;20728;-61
2021/03/30 02:22:50;;;;;;;2.00;1.80;;;7.60;71.80;;;;;;5022564;28;20287;-60
2021/03/30 02:25:19;;;;;;;1.50;1.40;;;7.60;72.00;;;;;;5023980;28;20184;-60
2021/03/30 02:27:47;;;;;;;1.73;1.43;;;7.50;72.10;;;;;;5020874;28;20184;-59
2021/03/30 02:30:16;;;;;;;1.90;1.80;;;7.50;72.40;;;;;;5027713;28;20183;-60
2021/03/30 02:32:44;;;;;;;1.67;1.50;;;7.50;72.40;;;;;;5025651;28;20597;-60
2021/03/30 02:35:11;;;;;;;2.10;1.73;;;7.50;72.30;;;;;;5026121;28;20256;-60
2021/03/30 02:37:38;;;;;;;1.70;1.60;;;7.40;72.60;;;;;;5025913;28;20189;-60
2021/03/30 02:40:08;;;;;;;6.17;1.43;;;7.40;72.50;;;;;;5024120;28;20176;-59
2021/03/30 02:42:36;;;;;;;2.90;1.70;;;7.40;72.40;;;;;;5020164;28;20230;-58
2021/03/30 02:45:04;;;;;;;1.43;1.33;;;7.40;72.40;;;;;;5025931;28;20195;-59
2021/03/30 02:47:32;;;;;;;2.17;1.77;;;7.30;72.60;;;;;;5024967;28;20620;-60
2021/03/30 02:49:58;;;;;;;4.63;2.37;;;7.30;72.60;;;;;;5023736;28;20641;-58
2021/03/30 02:52:25;;;;;;;1.80;1.70;;;7.20;72.70;;;;;;5025907;28;20231;-58
2021/03/30 02:54:50;;;;;;;2.00;1.60;;;7.20;72.80;;;;;;5023572;28;20185;-59
2021/03/30 02:57:17;;;;;;;2.87;1.60;;;7.20;72.80;;;;;;5024481;28;20195;-59
2021/03/30 02:59:44;;;;;;;1.83;1.73;;;7.10;72.80;;;;;;5023076;28;20302;-59
2021/03/30 03:02:13;;;;;;;4.17;2.73;;;7.10;73.00;;;;;;5025018;28;20255;-59
2021/03/30 03:04:39;;;;;;;2.50;1.90;;;7.10;73.20;;;;;;5023688;28;20231;-59
2021/03/30 03:07:06;;;;;;;2.23;1.73;;;7.10;73.20;;;;;;5022575;28;20612;-59
2021/03/30 03:09:33;;;;;;;2.70;1.90;;;7.00;73.20;;;;;;5024765;28;20238;-59
2021/03/30 03:12:00;;;;;;;2.07;1.97;;;7.00;73.30;;;;;;5026058;28;20211;-60
2021/03/30 03:14:28;;;;;;;3.27;1.70;;;7.00;73.40;;;;;;5024756;28;20263;-60
2021/03/30 03:16:55;;;;;;;3.00;1.80;;;6.90;73.30;;;;;;5022480;28;20270;-60
2021/03/30 03:19:23;;;;;;;2.90;1.73;;;6.90;73.40;;;;;;5019667;28;20227;-59
2021/03/30 03:21:50;;;;;;;1.27;1.17;;;6.90;73.40;;;;;;5017621;28;20271;-60
2021/03/30 03:24:16;;;;;;;2.20;2.00;;;6.90;73.50;;;;;;5024190;28;20262;-61
2021/03/30 03:26:42;;;;;;;1.50;1.50;;;6.90;73.50;;;;;;5023826;28;20180;-60
2021/03/30 03:29:14;;;;;;;1.83;1.63;;;6.80;73.50;;;;;;5025021;28;20570;-60
2021/03/30 03:31:41;;;;;;;6.20;3.37;;;6.80;73.50;;;;;;5025030;28;20270;-61
2021/03/30 03:34:07;;;;;;;2.80;2.60;;;6.80;73.40;;;;;;5022749;28;20180;-60
2021/03/30 03:36:47;;;;;;;2.23;2.13;;;6.80;73.30;;;;;;5025896;28;20176;-58
2021/03/30 03:39:15;;;;;;;2.20;2.10;;;6.80;73.40;;;;;;5022456;28;20172;-60
2021/03/30 03:41:42;;;;;;;3.83;2.23;;;6.80;73.50;;;;;;5025667;28;20188;-61
2021/03/30 03:44:09;;;;;;;2.13;2.03;;;6.70;73.40;;;;;;5021416;28;20180;-58
2021/03/30 03:46:35;;;;;;;2.17;1.67;;;6.70;73.30;;;;;;5023540;28;20696;-60
2021/03/30 03:49:04;;;;;;;4.10;2.37;;;6.70;73.40;;;;;;5024278;28;20767;-60
2021/03/30 03:51:34;;;;;;;2.87;2.57;;;6.70;73.40;;;;;;5021752;28;20239;-58
2021/03/30 03:54:04;;;;;;;2.90;2.00;;;6.70;73.60;;;;;;5022226;28;20176;-60
2021/03/30 03:56:38;;;;;;;2.07;1.97;;;6.60;73.50;;;;;;5041409;28;20623;-60
2021/03/30 03:59:11;;;;;;;2.70;1.93;;;6.60;73.40;;;;;;5022223;28;20267;-60
2021/03/30 04:02:12;;;;;;;4.13;2.33;;;6.60;73.50;;;;;;5024003;28;20696;-60
2021/03/30 04:04:51;;;;;;;2.37;2.07;;;6.60;73.70;;;;;;5008089;28;20206;-59
2021/03/30 04:07:24;;;;;;;2.37;2.10;;;6.60;73.70;;;;;;5007456;28;20185;-60
2021/03/30 04:09:55;;;;;;;4.67;2.13;;;6.50;73.80;;;;;;5008270;28;20649;-58
2021/03/30 04:12:25;;;;;;;6.57;2.37;;;6.50;73.90;;;;;;5008922;28;20220;-59
2021/03/30 04:14:51;;;;;;;5.07;2.77;;;6.50;73.80;;;;;;5006888;28;20269;-59
2021/03/30 04:17:17;;;;;;;4.50;2.03;;;6.50;73.90;;;;;;5007878;28;20220;-60
2021/03/30 04:19:46;;;;;;;3.43;2.10;;;6.50;73.90;;;;;;5007882;28;20208;-60
2021/03/30 04:22:13;;;;;;;2.40;2.10;;;6.40;73.90;;;;;;5010292;28;20222;-60
2021/03/30 04:24:40;;;;;;;2.93;2.07;;;6.40;74.00;;;;;;5009951;28;20181;-60
2021/03/30 04:27:10;;;;;;;3.57;2.13;;;6.40;74.10;;;;;;5011005;28;20267;-60
2021/03/30 04:29:38;;;;;;;3.63;2.80;;;6.40;74.20;;;;;;5008196;28;20271;-60
2021/03/30 04:32:05;;;;;;;2.47;2.17;;;6.40;74.40;;;;;;5012110;28;20219;-60
2021/03/30 04:34:31;;;;;;;10.80;2.50;;;6.40;74.30;;;;;;5014038;28;20203;-60
2021/03/30 04:36:56;;;;;;;3.57;2.10;;;6.40;74.40;;;;;;5009024;28;20190;-59
2021/03/30 04:39:22;;;;;;;2.93;2.50;;;6.40;74.30;;;;;;5012776;28;20204;-60
2021/03/30 04:41:48;;;;;;;4.30;2.70;;;6.40;74.40;;;;;;5023407;28;20200;-60
2021/03/30 04:44:14;;;;;;;7.33;2.90;;;6.40;74.40;;;;;;5026700;28;20242;-59
2021/03/30 04:46:39;;;;;;;4.30;2.33;;;6.40;74.50;;;;;;5026790;28;20270;-60
2021/03/30 04:49:05;;;;;;;3.33;2.87;;;6.40;74.50;;;;;;5027706;28;20176;-61
2021/03/30 04:51:31;;;;;;;15.57;2.23;;;6.40;74.40;;;;;;5026248;28;20180;-59
2021/03/30 04:53:56;;;;;;;4.77;3.53;;;6.40;74.60;;;;;;5027485;28;20189;-61
2021/03/30 04:56:22;;;;;;;3.30;3.00;;;6.40;74.40;;;;;;5025944;28;20187;-59
2021/03/30 04:58:48;;;;;;;3.90;2.83;;;6.40;74.50;;;;;;5024934;28;20633;-61
2021/03/30 05:01:14;;;;;;;3.97;3.00;;;6.50;74.50;;;;;;5026631;28;20188;-58
2021/03/30 05:03:39;;;;;;;2.70;2.47;;;6.50;74.50;;;;;;5027444;28;20181;-60
2021/03/30 05:06:05;;;;;;;3.03;2.83;;;6.50;74.40;;;;;;5026061;28;20184;-60
2021/03/30 05:08:31;;;;;;;5.83;2.50;;;6.50;74.40;;;;;;5026130;28;20266;-61
2021/03/30 05:10:57;;;;;;;2.60;2.40;;;6.50;74.10;;;;;;5025179;28;20258;-58
2021/03/30 05:13:23;;;;;;;3.00;2.80;;;6.50;74.30;;;;;;5026445;28;20220;-60
2021/03/30 05:15:49;;;;;;;3.47;2.97;;;6.50;74.30;;;;;;5024059;28;20184;-58
2021/03/30 05:18:15;;;;;;;3.37;3.10;;;6.60;73.90;;;;;;5025885;28;20196;-60
2021/03/30 05:20:41;;;;;;;2.50;2.40;;;6.60;74.10;;;;;;5025656;28;20193;-60
2021/03/30 05:23:06;;;;;;;3.90;2.97;;;6.70;73.80;;;;;;5026277;28;20243;-60
2021/03/30 05:25:32;;;;;;;21.37;3.70;;;6.70;73.80;;;;;;5024594;28;20180;-59
2021/03/30 05:27:58;;;;;;;3.00;2.80;;;6.70;73.70;;;;;;5027565;28;20264;-61
2021/03/30 05:30:24;;;;;;;3.43;3.23;;;6.80;73.50;;;;;;5026913;28;20189;-61
2021/03/30 05:32:50;;;;;;;3.53;3.23;;;6.80;73.40;;;;;;5026191;28;20247;-61
2021/03/30 05:35:15;;;;;;;9.10;2.97;;;6.90;73.50;;;;;;5022852;28;20289;-61
2021/03/30 05:37:41;;;;;;;3.20;3.00;;;6.90;73.20;;;;;;5022972;28;20184;-59
2021/03/30 05:40:13;;;;;;;5.87;3.23;;;7.00;73.50;;;;;;5027396;28;20190;-58
2021/03/30 05:42:39;;;;;;;3.33;3.07;;;7.10;73.40;;;;;;5025987;28;20176;-60
2021/03/30 05:45:07;;;;;;;2.80;2.60;;;7.10;73.40;;;;;;5022175;28;20188;-61
2021/03/30 05:47:33;;;;;;;4.40;2.90;;;7.20;73.10;;;;;;5025157;28;20184;-60
2021/03/30 05:50:00;;;;;;;3.17;2.87;;;7.20;72.90;;;;;;5025365;28;20204;-61
2021/03/30 05:52:46;;;;;;;3.50;3.27;;;7.30;72.60;;;;;;5025908;28;20204;-60
2021/03/30 05:55:26;;;;;;;7.70;2.43;;;7.30;72.30;;;;;;5024207;28;20176;-61
2021/03/30 05:57:54;;;;;;;4.00;3.10;;;7.40;72.10;;;;;;5026284;28;20189;-61
2021/03/30 06:00:26;;;;;;;5.27;3.63;;;7.50;71.80;;;;;;5027191;28;20594;-59
2021/03/30 06:02:55;;;;;;;3.77;2.47;;;7.50;71.40;;;;;;5026506;28;20180;-60
2021/03/30 06:05:21;;;;;;;2.93;2.73;;;7.60;71.40;;;;;;5026474;28;20184;-60
2021/03/30 06:07:48;;;;;;;5.60;3.30;;;7.70;71.20;;;;;;5026173;28;20193;-59
2021/03/30 06:10:20;;;;;;;4.73;2.90;;;7.70;71.10;;;;;;5029773;28;20275;-61
2021/03/30 06:12:46;;;;;;;3.10;2.83;;;7.80;71.00;;;;;;5024567;28;20283;-59
2021/03/30 06:15:14;;;;;;;4.40;3.00;;;7.80;71.10;;;;;;5021168;28;20191;-61
2021/03/30 06:17:45;;;;;;;3.30;3.10;;;7.90;71.10;;;;;;5026571;28;20226;-59
2021/03/30 06:20:14;;;;;;;7.07;2.70;;;7.90;70.90;;;;;;5027508;28;20196;-61
2021/03/30 06:22:51;;;;;;;4.00;2.67;;;8.00;70.40;;;;;;5027354;28;20904;-60
2021/03/30 06:25:36;;;;;;;2.27;2.07;;;8.00;70.20;;;;;;5025675;28;20190;-60
2021/03/30 06:28:27;;;;;;;3.53;2.97;;;8.10;70.00;;;;;;5025413;28;20180;-59
2021/03/30 06:30:59;;;;;;;2.73;2.53;;;8.10;69.20;;;;;;5025745;28;20271;-59
2021/03/30 06:33:27;;;;;;;2.80;2.53;;;8.20;69.40;;;;;;5025328;28;20317;-61
2021/03/30 06:36:23;;;;;;;2.10;1.90;;;8.20;69.20;;;;;;5026019;28;20230;-59
2021/03/30 06:39:10;;;;;;;2.60;2.40;;;8.30;69.00;;;;;;5029554;28;20216;-59
2021/03/30 06:47:14;;;;;;;2.53;2.43;;;8.40;69.00;;;;;;5004178;28;20218;-61
2021/03/30 06:49:55;;;;;;;4.03;2.30;;;8.50;68.90;;;;;;5003091;28;20669;-61
2021/03/30 06:52:29;;;;;;;2.73;2.50;;;8.60;68.50;;;;;;5000969;28;20248;-61
2021/03/30 06:55:27;;;;;;;3.17;2.87;;;8.70;68.50;;;;;;5004531;28;20268;-61
2021/03/30 06:58:01;;;;;;;2.73;2.10;;;8.70;68.30;;;;;;5002277;28;20200;-61
2021/03/30 07:00:27;;;;;;;3.17;2.03;;;8.80;67.80;;;;;;5003796;28;20196;-60
2021/03/30 07:02:55;;;;;;;2.40;2.30;;;8.90;67.50;;;;;;5001990;28;20747;-58
2021/03/30 07:05:37;;;;;;;1.77;1.70;;;8.90;67.10;;;;;;5005545;28;20193;-60
2021/03/30 07:08:08;;;;;;;2.63;2.20;;;8.90;66.00;;;;;;5005038;28;20199;-61
2021/03/30 07:10:39;;;;;;;2.50;2.40;;;9.00;66.30;;;;;;5001304;28;20199;-60
2021/03/30 07:13:05;;;;;;;2.10;2.00;;;9.10;66.30;;;;;;5002777;28;20208;-59
2021/03/30 07:15:32;;;;;;;4.13;2.20;;;9.20;66.20;;;;;;5000608;28;20193;-59
2021/03/30 07:18:00;;;;;;;2.37;2.27;;;9.30;65.70;;;;;;5002439;28;20304;-58
2021/03/30 07:20:28;;;;;;;2.53;2.23;;;9.30;65.20;;;;;;4999169;28;20193;-59
2021/03/30 07:22:55;;;;;;;1.80;1.70;;;9.40;65.20;;;;;;5005641;28;20201;-57
2021/03/30 07:25:23;;;;;;;1.57;1.47;;;9.50;64.80;;;;;;5023689;28;20191;-58
2021/03/30 07:27:58;;;;;;;2.10;2.00;;;9.50;64.60;;;;;;5023641;28;20347;-59
2021/03/30 07:30:26;;;;;;;2.07;1.97;;;9.50;64.50;;;;;;5023484;28;20215;-60
2021/03/30 07:33:16;;;;;;;2.10;1.90;;;9.60;64.30;;;;;;5024684;28;21016;-60
2021/03/30 07:35:42;;;;;;;2.30;1.90;;;9.70;64.50;;;;;;5025438;28;20183;-56
2021/03/30 07:38:20;;;;;;;1.73;1.63;;;9.80;64.20;;;;;;5024389;28;20585;-62
2021/03/30 07:40:48;;;;;;;2.43;1.90;;;9.90;64.20;;;;;;5017072;28;20180;-59
2021/03/30 07:43:26;;;;;;;2.00;1.90;;;10.00;64.00;;;;;;5024584;28;20271;-60
2021/03/30 07:45:54;;;;;;;3.53;1.97;;;10.10;63.50;;;;;;5022730;28;20194;-61
2021/03/30 07:48:23;;;;;;;2.73;2.53;;;10.20;63.70;;;;;;5022768;28;20188;-60
2021/03/30 07:50:49;;;;;;;2.90;2.00;;;10.20;63.40;;;;;;5023990;28;20214;-59
2021/03/30 07:53:40;;;;;;;2.93;2.20;;;10.30;63.30;;;;;;5023338;28;20216;-59
2021/03/30 07:56:08;;;;;;;3.23;2.53;;;10.40;62.90;;;;;;5019860;28;20688;-59
2021/03/30 07:58:44;;;;;;;2.30;2.10;;;10.50;63.10;;;;;;5017520;28;20434;-60
2021/03/30 08:01:12;;;;;;;3.73;1.87;;;10.60;62.10;;;;;;5022514;28;20180;-59
2021/03/30 08:03:39;;;;;;;2.33;2.10;;;10.70;61.90;;;;;;5019560;28;20189;-60
2021/03/30 08:06:24;;;;;;;3.40;1.60;;;10.80;62.20;;;;;;5016702;28;20271;-59
2021/03/30 08:09:04;;;;;;;3.60;2.07;;;11.00;60.60;;;;;;5019998;28;20192;-60
2021/03/30 08:11:52;;;;;;;1.97;1.77;;;11.10;61.00;;;;;;5019907;28;20207;-60
2021/03/30 08:14:18;;;;;;;4.32;2.33;;;11.20;60.80;;;;;;5021641;28;20347;-60
2021/03/30 08:16:48;;;;;;;1.98;1.98;;;11.40;60.90;;;;;;5017755;28;20757;-58
2021/03/30 08:19:14;;;;;;;1.90;1.80;;;11.50;60.60;;;;;;5020236;28;20777;-59
2021/03/30 08:21:55;;;;;;;5.43;2.13;;;11.70;59.90;;;;;;5022329;28;20251;-59
2021/03/30 08:24:44;;;;;;;2.25;1.83;;;11.80;59.40;;;;;;5022373;28;20208;-60
2021/03/30 08:27:29;;;;;;;2.43;2.23;;;12.00;59.10;;;;;;5023100;28;20307;-60
2021/03/30 08:29:54;;;;;;;2.58;2.38;;;12.30;59.30;;;;;;5024754;28;20280;-59
2021/03/30 08:32:22;;;;;;;2.70;2.50;;;12.50;59.40;;;;;;5022031;28;20237;-59
2021/03/30 08:34:48;;;;;;;2.05;2.00;;;12.90;58.40;;;;;;5024925;28;20181;-59
2021/03/30 08:37:15;;;;;;;2.22;2.05;;;13.20;58.70;;;;;;5021907;28;20176;-60
2021/03/30 08:39:42;;;;;;;4.43;2.15;;;14.00;57.30;;;;;;5024471;28;20177;-59
2021/03/30 08:42:16;;;;;;;2.45;2.03;;;14.60;56.20;;;;;;5024431;28;20189;-60
2021/03/30 08:44:56;;;;;;;4.63;2.58;;;15.60;54.90;;;;;;5022941;28;20612;-59
2021/03/30 08:47:42;;;;;;;2.75;2.17;;;16.20;52.60;;;;;;5022813;28;20188;-59
2021/03/30 08:50:28;;;;;;;2.33;2.20;;;16.40;51.50;;;;;;5024243;28;20193;-59
2021/03/30 08:52:56;;;;;;;1.92;1.83;;;16.60;51.60;;;;;;5022474;28;20214;-59
2021/03/30 08:55:26;;;;;;;3.13;2.05;;;17.10;50.40;;;;;;5020711;28;20230;-61
2021/03/30 08:57:53;;;;;;;2.72;2.42;;;17.80;50.00;;;;;;5018915;28;20189;-58
2021/03/30 09:00:20;;;;;;;1.73;1.70;;;18.70;49.10;;;;;;5019257;28;20263;-61
2021/03/30 09:02:56;;;;;;;1.30;1.30;;;19.40;48.30;;;;;;5019632;28;20180;-59
2021/03/30 09:05:23;;;;;;;3.33;1.73;;;19.90;48.40;;;;;;5022442;28;20681;-59
2021/03/30 09:07:49;;;;;;;1.55;1.52;;;20.50;47.60;;;;;;5023961;28;20196;-61
2021/03/30 09:10:16;;;;;;;1.65;1.55;;;21.00;46.20;;;;;;5021517;28;20187;-60
2021/03/30 09:12:43;;;;;;;1.77;1.63;;;21.70;46.20;;;;;;5025264;28;20270;-59
2021/03/30 09:15:11;;;;;;;1.90;1.80;;;22.10;45.30;;;;;;5027287;28;20220;-59
2021/03/30 09:17:56;;;;;;;1.95;1.30;;;22.60;44.20;;;;;;5026453;28;20226;-59
2021/03/30 09:20:22;;;;;;;1.42;1.33;;;23.00;43.10;;;;;;5027453;28;20176;-59
2021/03/30 09:22:48;;;;;;;1.48;1.35;;;23.50;43.20;;;;;;5025803;28;20730;-58
2021/03/30 09:27:56;;;;;;;1.55;1.55;;;23.70;43.00;;;;;;5027550;28;20181;-61
2021/03/30 09:30:24;;;;;;;1.52;1.40;;;23.90;41.50;;;;;;5040658;28;20221;-60
2021/03/30 09:32:52;;;;;;;2.05;1.75;;;24.30;40.80;;;;;;5025594;28;20299;-60
2021/03/30 09:35:27;;;;;;;1.80;1.63;;;24.70;41.30;;;;;;5025871;28;20190;-58
2021/03/30 09:38:03;;;;;;;1.63;1.52;;;25.20;41.50;;;;;;5026387;28;20545;-60
2021/03/30 09:40:33;;;;;;;3.55;1.73;;;25.80;41.70;;;;;;5024018;28;20412;-59
2021/03/30 09:42:59;;;;;;;1.92;1.83;;;26.30;40.00;;;;;;5023100;28;20196;-58
2021/03/30 09:45:28;;;;;;;4.82;1.77;;;26.40;39.30;;;;;;5025963;28;20184;-60
2021/03/30 09:47:56;;;;;;;1.30;1.30;;;26.40;40.80;;;;;;5027198;28;20203;-59
2021/03/30 09:50:24;;;;;;;3.65;1.75;;;26.50;39.80;;;;;;5024360;28;20697;-60
2021/03/30 09:52:50;;;;;;;1.65;1.55;;;26.80;40.30;;;;;;5024567;28;20311;-60
2021/03/30 09:55:34;;;;;;;1.30;1.30;;;27.30;39.70;;;;;;5025871;28;20184;-59
2021/03/30 09:58:07;;;;;;;2.47;2.08;;;27.20;38.40;;;;;;5025823;28;20661;-60
2021/03/30 10:00:34;;;;;;;4.75;2.90;;;26.80;38.70;;;;;;5026048;28;20278;-60
2021/03/30 10:03:02;;;;;;;1.90;1.90;;;27.10;40.70;;;;;;5025978;28;20185;-59
2021/03/30 10:05:35;;;;;;;4.38;2.08;;;27.40;39.70;;;;;;5024340;28;20275;-60
2021/03/30 10:13:25;;;;;;;2.10;1.98;;;29.10;38.10;;;;;;5299169;23;20891;-73
2021/03/30 10:18:23;;;;;;;1.77;1.67;;;29.10;36.80;;;;;;4982223;28;20226;-71
2021/03/30 10:59:31;;;;;;;2.00;1.90;;;31.50;37.50;;;;;;5021396;28;20269;-76
2021/03/30 11:01:57;;;;;;;1.55;1.55;;;31.90;36.40;;;;;;5021566;28;20211;-73
2021/03/30 11:04:22;;;;;;;1.70;1.60;;;31.70;36.50;;;;;;5019362;28;20180;-76
2021/03/30 11:06:48;;;;;;;1.75;1.70;;;31.90;36.60;;;;;;5010924;28;20180;-72
2021/03/30 11:09:14;;;;;;;1.70;1.70;;;32.00;37.40;;;;;;5023603;28;20188;-76
2021/03/30 11:11:41;;;;;;;2.15;2.05;;;31.90;36.90;;;;;;5023483;28;20185;-77
2021/03/30 11:14:26;;;;;;;1.40;1.40;;;32.00;37.20;;;;;;5024052;28;20176;-75
2021/03/30 11:16:52;;;;;;;2.80;1.55;;;32.20;35.80;;;;;;5021796;28;20180;-77
2021/03/30 11:19:19;;;;;;;1.58;1.52;;;32.50;36.50;;;;;;5025289;28;20181;-78
2021/03/30 11:21:45;;;;;;;1.88;1.77;;;32.50;35.10;;;;;;5023595;28;20176;-77
2021/03/30 11:24:18;;;;;;;1.77;1.77;;;32.80;36.50;;;;;;5024745;28;20195;-75
2021/03/30 11:26:47;;;;;;;2.25;2.00;;;33.00;37.30;;;;;;5022916;28;20242;-78
2021/03/30 11:29:26;;;;;;;1.60;1.52;;;33.20;34.90;;;;;;5025425;28;20180;-77
2021/03/30 11:37:38;;;;;;;1.90;1.50;;;32.20;34.00;;;;;;5023369;28;20188;-76
2021/03/30 11:40:04;;;;;;;1.33;1.33;;;31.50;35.40;;;;;;5024106;28;20204;-75
2021/03/30 11:42:30;;;;;;;1.50;1.50;;;31.20;36.70;;;;;;5024896;28;20226;-77
2021/03/30 11:44:55;;;;;;;1.63;1.60;;;30.70;37.20;;;;;;5023661;28;20563;-75
2021/03/30 11:50:06;;;;;;;1.58;1.30;;;30.60;36.10;;;;;;5022745;28;20179;-77
2021/03/30 11:52:34;;;;;;;1.52;1.42;;;30.80;37.60;;;;;;5024015;28;20188;-77
2021/03/30 11:55:00;;;;;;;1.60;1.50;;;31.00;36.30;;;;;;5024992;28;20691;-76
2021/03/30 11:57:26;;;;;;;4.53;1.58;;;31.20;35.10;;;;;;5022321;28;20822;-76
2021/03/30 11:59:53;;;;;;;2.75;1.48;;;31.60;37.00;;;;;;5020219;28;20552;-76
2021/03/30 12:02:19;;;;;;;1.50;1.40;;;32.00;36.00;;;;;;5023316;28;20245;-77
2021/03/30 12:04:45;;;;;;;1.33;1.33;;;32.40;36.10;;;;;;5023317;28;20177;-76
2021/03/30 12:07:10;;;;;;;1.48;1.48;;;32.40;34.00;;;;;;5022778;28;20184;-75
2021/03/30 12:09:36;;;;;;;1.13;1.13;;;31.90;35.80;;;;;;5023772;28;20195;-77
2021/03/30 12:12:02;;;;;;;1.35;1.08;;;32.00;35.40;;;;;;5016088;28;20185;-76
2021/03/30 12:14:28;;;;;;;0.98;0.98;;;32.30;36.00;;;;;;5022174;28;20187;-75
2021/03/30 12:16:53;;;;;;;1.33;1.33;;;32.80;35.30;;;;;;5024021;28;20180;-77
2021/03/30 12:19:19;;;;;;;3.03;1.35;;;32.90;34.30;;;;;;5023963;28;20671;-76
2021/03/30 12:21:46;;;;;;;1.92;1.30;;;32.80;35.70;;;;;;5021935;28;20630;-76
2021/03/30 12:24:13;;;;;;;1.52;1.33;;;32.40;35.60;;;;;;5020876;28;20191;-75
2021/03/30 12:26:38;;;;;;;1.35;1.35;;;32.00;35.90;;;;;;5018865;28;20200;-78
2021/03/30 12:29:05;;;;;;;1.38;1.38;;;31.40;35.40;;;;;;5024280;28;20659;-77
2021/03/30 12:31:31;;;;;;;1.65;1.65;;;30.60;35.40;;;;;;5023144;28;20667;-77
2021/03/30 12:33:57;;;;;;;1.92;1.10;;;30.40;36.90;;;;;;5024490;28;20184;-77
2021/03/30 12:36:23;;;;;;;1.52;1.42;;;30.50;37.20;;;;;;5024025;28;20199;-77
2021/03/30 12:38:49;;;;;;;1.38;1.38;;;30.90;35.30;;;;;;5022609;28;20195;-75
2021/03/30 12:41:15;;;;;;;1.52;1.42;;;30.70;34.70;;;;;;5026292;28;20583;-77
2021/03/30 12:43:41;;;;;;;3.50;1.20;;;30.20;36.50;;;;;;5027125;28;20211;-75
2021/03/30 12:46:06;;;;;;;3.75;1.45;;;29.30;36.20;;;;;;5016517;28;20191;-75
2021/03/30 12:48:32;;;;;;;2.13;1.65;;;28.30;36.40;;;;;;5025399;28;20200;-75
2021/03/30 12:50:58;;;;;;;1.25;1.23;;;27.50;37.70;;;;;;5026765;28;20349;-75
2021/03/30 12:53:23;;;;;;;1.30;1.30;;;26.70;37.60;;;;;;5026944;28;20195;-75
2021/03/30 12:55:49;;;;;;;1.60;1.60;;;26.00;38.40;;;;;;5028093;28;20216;-75
2021/03/30 12:58:15;;;;;;;1.48;1.38;;;25.50;38.50;;;;;;5028267;28;20234;-75
2021/03/30 13:00:41;;;;;;;1.33;1.20;;;25.50;38.90;;;;;;5028174;28;20188;-76
2021/03/30 13:03:06;;;;;;;1.38;1.25;;;26.00;39.10;;;;;;5027949;28;20216;-76
2021/03/30 13:05:32;;;;;;;2.50;1.55;;;26.10;38.40;;;;;;5027683;28;20207;-75
2021/03/30 13:07:58;;;;;;;2.03;1.42;;;25.80;38.80;;;;;;5027531;28;20188;-76
2021/03/30 13:10:23;;;;;;;1.58;1.33;;;25.50;38.60;;;;;;5027807;28;20190;-75
2021/03/30 13:12:49;;;;;;;4.53;1.17;;;25.10;39.20;;;;;;5027729;28;20176;-75
2021/03/30 13:15:18;;;;;;;1.05;1.05;;;24.60;39.20;;;;;;5028015;28;20176;-75
2021/03/30 13:17:46;;;;;;;1.38;1.27;;;24.20;39.00;;;;;;5017725;28;20184;-75
2021/03/30 13:20:12;;;;;;;1.50;1.15;;;23.80;39.60;;;;;;5027757;28;20195;-75
2021/03/30 13:22:38;;;;;;;1.88;1.30;;;23.40;39.70;;;;;;5027676;28;20204;-75
2021/03/30 13:25:04;;;;;;;1.35;1.02;;;23.00;39.40;;;;;;5027385;28;20255;-76
2021/03/30 13:27:30;;;;;;;1.02;1.02;;;22.40;41.00;;;;;;5027698;28;20237;-76
2021/03/30 13:29:56;;;;;;;1.00;1.00;;;21.70;40.60;;;;;;5027486;28;20636;-75
2021/03/30 13:32:23;;;;;;;1.67;1.40;;;21.10;42.40;;;;;;5025851;28;20195;-74
2021/03/30 13:34:50;;;;;;;2.05;0.98;;;20.70;42.30;;;;;;5038042;28;20192;-75
2021/03/30 13:37:18;;;;;;;1.15;1.15;;;20.50;42.10;;;;;;5027162;28;20853;-75
2021/03/30 13:39:44;;;;;;;1.50;1.40;;;20.20;42.30;;;;;;5025842;28;20196;-75
2021/03/30 13:42:12;;;;;;;2.15;1.10;;;20.00;42.40;;;;;;5022980;28;20615;-75
2021/03/30 13:44:39;;;;;;;1.40;1.40;;;19.90;42.70;;;;;;5022609;28;20618;-75
2021/03/30 13:47:06;;;;;;;1.25;1.15;;;19.70;42.50;;;;;;5026522;28;20263;-75
2021/03/30 13:49:34;;;;;;;1.45;1.08;;;19.60;42.30;;;;;;5026040;28;20184;-75
2021/03/30 13:52:00;;;;;;;1.33;1.30;;;19.20;42.80;;;;;;5026186;28;20177;-75
2021/03/30 13:54:27;;;;;;;3.22;1.52;;;19.00;42.70;;;;;;5026112;28;20199;-75
2021/03/30 13:56:53;;;;;;;2.17;1.58;;;19.00;43.40;;;;;;5026532;28;20177;-74
2021/03/30 13:59:20;;;;;;;1.65;0.98;;;19.10;43.30;;;;;;5026180;28;20595;-75
2021/03/30 14:01:48;;;;;;;1.33;1.27;;;19.50;43.30;;;;;;5027353;28;20652;-74
2021/03/30 14:04:14;;;;;;;3.05;1.30;;;20.00;42.90;;;;;;5026904;28;20180;-75
2021/03/30 14:06:40;;;;;;;1.00;1.00;;;20.30;42.60;;;;;;5026630;28;20218;-75
2021/03/30 14:09:07;;;;;;;1.20;1.20;;;20.20;42.90;;;;;;5024196;28;20196;-75